Time;durP1;ratioP1;P1;durP2;ratioP2;P2;SDS_P1;SDS_P2;PMS_P1;PMS_P2;Temp;Humidity;BMP_temperature;BMP_pressure;BME280_temperature;BME280_humidity;BME280_pressure;Samples;Min_cycle;Max_cycle;Signal;HPM_P1;HPM_P2
2023/09/25 00:01:03;;;;;;;0.30;0.30;;;;;;;15.29;100.00;100002.56;4966975;28;20055;-95
2023/09/25 00:03:30;;;;;;;0.40;0.40;;;;;;;15.32;100.00;100002.09;4980208;28;20109;-91
2023/09/25 00:05:57;;;;;;;0.32;0.32;;;;;;;15.33;100.00;100009.16;4972661;28;20055;-91
2023/09/25 00:08:25;;;;;;;0.40;0.40;;;;;;;15.33;100.00;99992.84;4970612;28;20055;-91
2023/09/25 00:10:53;;;;;;;0.40;0.40;;;;;;;15.40;100.00;100001.63;4957361;28;20047;-91
2023/09/25 00:13:23;;;;;;;0.40;0.40;;;;;;;15.39;100.00;99989.09;5071851;23;20035;-91
2023/09/25 00:15:51;;;;;;;0.30;0.30;;;;;;;15.43;100.00;99981.28;4985543;28;20053;-92
2023/09/25 00:18:18;;;;;;;0.40;0.40;;;;;;;15.55;100.00;100001.84;5001970;28;20035;-93
2023/09/25 00:20:46;;;;;;;0.40;0.40;;;;;;;15.48;100.00;99994.94;4979143;28;20027;-96
2023/09/25 00:23:14;;;;;;;0.40;0.40;;;;;;;15.51;100.00;99994.44;4998344;28;20577;-96
2023/09/25 00:25:45;;;;;;;0.40;0.40;;;;;;;15.60;100.00;100001.06;4983566;28;20079;-96
2023/09/25 00:34:41;;;;;;;0.30;0.30;;;;;;;15.58;100.00;100004.03;5215502;23;20067;-95
2023/09/25 00:37:09;;;;;;;0.38;0.38;;;;;;;15.67;100.00;100017.19;4983407;28;20061;-95
2023/09/25 00:39:38;;;;;;;0.40;0.40;;;;;;;15.82;100.00;100031.03;4940858;29;20119;-96
2023/09/25 00:42:17;;;;;;;0.30;0.30;;;;;;;15.69;100.00;100021.34;4927042;29;20048;-94
2023/09/25 00:44:47;;;;;;;0.40;0.40;;;;;;;15.82;100.00;100044.63;4930412;29;20060;-93
2023/09/25 00:47:15;;;;;;;0.40;0.40;;;;;;;15.68;100.00;100002.53;4932343;29;20148;-96
2023/09/25 00:49:43;;;;;;;0.40;0.40;;;;;;;15.70;100.00;100014.84;4933324;29;20060;-95
2023/09/25 00:52:12;;;;;;;0.40;0.40;;;;;;;15.79;100.00;100034.25;4934848;29;20048;-95
2023/09/25 00:54:39;;;;;;;0.40;0.40;;;;;;;15.67;100.00;100017.19;4925548;29;20028;-87
2023/09/25 00:57:09;;;;;;;0.30;0.30;;;;;;;15.66;100.00;100012.84;4942967;29;20035;-87
2023/09/25 01:12:37;;;;;;;0.40;0.40;;;;;;;15.49;100.00;100034.66;5476213;23;20070;-94
2023/09/25 01:15:31;;;;;;;0.40;0.40;;;;;;;15.61;100.00;100041.63;4979693;28;20059;-93
2023/09/25 01:17:59;;;;;;;0.40;0.40;;;;;;;15.48;100.00;100038.47;4959014;29;20056;-95
2023/09/25 01:20:26;;;;;;;0.30;0.30;;;;;;;15.65;100.00;100041.97;4962589;29;20055;-96
2023/09/25 01:22:56;;;;;;;0.30;0.30;;;;;;;15.66;100.00;100053.66;4940109;28;20032;-96
2023/09/25 01:25:23;;;;;;;0.40;0.40;;;;;;;15.61;99.75;100054.41;4954219;29;20071;-92
2023/09/25 01:27:51;;;;;;;0.43;0.43;;;;;;;15.59;99.64;100060.09;4971752;28;20055;-95
2023/09/25 01:30:19;;;;;;;0.40;0.40;;;;;;;15.62;99.57;100058.75;4980578;28;20036;-93
2023/09/25 01:32:49;;;;;;;0.40;0.40;;;;;;;15.63;99.33;100056.88;4898011;29;20065;-95
2023/09/25 01:35:43;;;;;;;0.40;0.40;;;;;;;15.64;99.73;100062.06;4916022;29;20051;-95
2023/09/25 01:42:47;;;;;;;0.38;0.38;;;;;;;15.48;99.75;100069.19;4980800;28;20046;-95
2023/09/25 01:45:17;;;;;;;0.30;0.30;;;;;;;15.51;100.00;100062.44;4962789;29;20079;-95
2023/09/25 01:47:50;;;;;;;0.35;0.35;;;;;;;15.48;100.00;100061.03;4975754;29;20059;-95
2023/09/25 01:50:24;;;;;;;;;;;;;;;15.51;100.00;100073.31;4961867;29;20023;-94
2023/09/25 01:53:03;;;;;;;0.40;0.40;;;;;;;15.48;100.00;100066.47;5046597;23;20385;-96
2023/09/25 01:56:12;;;;;;;0.40;0.40;;;;;;;15.56;100.00;100076.94;4992946;28;20054;-95
2023/09/25 01:58:42;;;;;;;0.40;0.40;;;;;;;15.42;100.00;100063.94;4962953;28;20042;-96
2023/09/25 02:17:46;;;;;;;0.40;0.40;;;;;;;15.08;100.00;100083.00;5263117;23;20031;-94
2023/09/25 02:20:38;;;;;;;0.40;0.40;;;;;;;15.21;100.00;100103.59;4901372;29;20060;-95
2023/09/25 02:23:26;;;;;;;0.40;0.40;;;;;;;15.11;100.00;100096.94;4874626;29;20054;-95
2023/09/25 02:26:09;;;;;;;0.40;0.40;;;;;;;15.20;100.00;100116.38;4854976;29;20069;-95
2023/09/25 02:38:42;;;;;;;0.40;0.40;;;;;;;15.11;99.19;100140.44;1351581;23;20378;-85
2023/09/25 02:41:09;;;;;;;0.40;0.40;;;;;;;15.12;99.23;100133.94;4967649;28;20050;-93
2023/09/25 02:43:36;;;;;;;0.40;0.40;;;;;;;15.16;99.63;100145.94;4972901;28;20107;-92
2023/09/25 02:46:05;;;;;;;0.40;0.40;;;;;;;15.07;100.00;100133.03;4976577;28;20049;-90
2023/09/25 02:48:32;;;;;;;0.40;0.40;;;;;;;15.16;100.00;100145.94;4989330;28;20582;-91
2023/09/25 02:51:00;;;;;;;0.30;0.30;;;;;;;15.15;100.00;100149.75;4980363;28;20137;-93
2023/09/25 02:53:27;;;;;;;0.32;0.32;;;;;;;15.06;100.00;100139.53;4976506;28;20093;-88
2023/09/25 02:55:54;;;;;;;0.40;0.40;;;;;;;15.11;100.00;100154.03;4996084;28;20082;-95
2023/09/25 02:58:21;;;;;;;0.40;0.40;;;;;;;15.08;100.00;100165.41;4996720;28;20056;-93
2023/09/25 03:01:15;;;;;;;0.40;0.40;;;;;;;15.23;100.00;100172.16;4995067;28;20046;-94
2023/09/25 03:03:46;;;;;;;0.40;0.40;;;;;;;15.17;100.00;100174.81;4955710;28;20059;-94
2023/09/25 03:06:17;;;;;;;0.40;0.40;;;;;;;15.15;100.00;100176.13;4950100;28;20070;-93
2023/09/25 03:08:45;;;;;;;0.40;0.40;;;;;;;15.05;99.51;100171.34;4957248;28;20055;-95
2023/09/25 03:11:12;;;;;;;0.40;0.40;;;;;;;14.97;99.25;100174.47;4986402;28;20064;-92
2023/09/25 03:14:36;;;;;;;0.40;0.40;;;;;;;14.88;97.92;100182.16;4984324;28;20055;-95
2023/09/25 04:19:32;;;;;;;0.50;0.50;;;;;;;14.24;94.29;100257.47;5871654;23;20104;-89
2023/09/25 04:22:06;;;;;;;0.40;0.40;;;;;;;14.25;93.63;100257.22;4981267;28;20043;-92
2023/09/25 04:24:43;;;;;;;0.40;0.40;;;;;;;14.26;93.79;100261.59;4945419;28;20051;-91
2023/09/25 04:27:10;;;;;;;0.47;0.47;;;;;;;14.45;93.71;100285.88;4954367;29;20084;-93
2023/09/25 04:29:39;;;;;;;0.47;0.47;;;;;;;14.42;93.61;100264.63;4953517;29;20115;-92
2023/09/25 04:32:06;;;;;;;0.40;0.40;;;;;;;14.52;93.38;100276.53;4934033;29;20100;-93
2023/09/25 04:34:35;;;;;;;0.43;0.43;;;;;;;14.59;92.17;100284.59;4953451;29;20570;-92
2023/09/25 04:37:08;;;;;;;0.50;0.50;;;;;;;14.59;91.64;100276.44;4952016;29;20067;-93
2023/09/25 04:39:36;;;;;;;0.40;0.40;;;;;;;14.57;90.94;100272.31;4954560;29;20063;-89
2023/09/25 04:42:03;;;;;;;0.50;0.50;;;;;;;14.82;91.13;100296.47;4947870;29;20062;-94
2023/09/25 04:44:30;;;;;;;0.40;0.40;;;;;;;14.83;89.99;100298.13;4953364;29;20079;-91
2023/09/25 04:46:59;;;;;;;0.50;0.50;;;;;;;14.83;90.06;100301.66;4955379;29;20056;-90
2023/09/25 04:49:26;;;;;;;0.40;0.40;;;;;;;14.87;90.05;100304.72;4951659;29;20051;-93
2023/09/25 04:51:53;;;;;;;0.47;0.47;;;;;;;14.92;89.87;100296.69;4954585;29;20115;-91
2023/09/25 04:54:23;;;;;;;0.40;0.40;;;;;;;14.92;88.85;100302.13;4916541;29;20079;-92
2023/09/25 04:56:50;;;;;;;0.50;0.50;;;;;;;14.80;88.98;100312.19;4947963;29;20068;-94
2023/09/25 04:59:17;;;;;;;0.40;0.40;;;;;;;14.73;89.63;100309.59;4915164;29;20066;-95
2023/09/25 05:01:44;;;;;;;0.40;0.40;;;;;;;14.79;90.08;100322.25;4936713;29;20624;-95
2023/09/25 05:04:12;;;;;;;0.40;0.40;;;;;;;14.85;89.37;100317.72;4957402;29;20055;-94
2023/09/25 05:06:40;;;;;;;0.40;0.40;;;;;;;14.72;87.32;100314.22;4929622;29;20118;-95
2023/09/25 05:09:07;;;;;;;0.40;0.40;;;;;;;14.61;87.30;100323.22;4975810;28;20035;-96
2023/09/25 05:11:36;;;;;;;0.47;0.47;;;;;;;14.55;87.46;100329.59;4932959;29;20035;-94
2023/09/25 05:14:29;;;;;;;0.40;0.40;;;;;;;14.57;87.35;100332.91;4918941;29;20072;-92
2023/09/25 05:17:00;;;;;;;0.40;0.40;;;;;;;14.60;86.76;100346.00;4924727;23;20048;31
2023/09/25 05:19:59;;;;;;;0.40;0.40;;;;;;;14.63;86.62;100323.78;5609502;23;20145;-91
2023/09/25 05:22:27;;;;;;;0.40;0.40;;;;;;;14.68;86.18;100332.06;4969833;28;20039;-95
2023/09/25 05:25:15;;;;;;;0.50;0.50;;;;;;;14.56;85.62;100314.97;4927110;29;20044;-94
2023/09/25 05:30:55;;;;;;;0.43;0.43;;;;;;;14.68;83.97;100312.22;4931969;29;20052;-92
2023/09/25 05:34:27;;;;;;;0.50;0.50;;;;;;;14.72;84.30;100325.09;4873315;29;20078;-92
2023/09/25 05:36:56;;;;;;;0.50;0.50;;;;;;;14.85;84.07;100325.88;4869607;29;20109;-92
2023/09/25 05:39:24;;;;;;;0.45;0.45;;;;;;;14.83;83.17;100325.28;4869030;29;20067;-94
2023/09/25 05:41:56;;;;;;;0.50;0.50;;;;;;;14.86;83.97;100330.25;4882545;29;20033;-91
2023/09/25 05:44:26;;;;;;;0.40;0.40;;;;;;;14.93;83.87;100339.09;4882136;29;20053;-94
2023/09/25 05:47:08;;;;;;;0.40;0.40;;;;;;;14.78;83.62;100327.91;4867051;29;20049;-96
2023/09/25 05:49:42;;;;;;;0.50;0.50;;;;;;;14.74;83.23;100352.03;4878141;29;20153;-92
2023/09/25 05:52:18;;;;;;;0.50;0.50;;;;;;;14.60;83.20;100332.44;4895914;29;20517;-91
2023/09/25 05:54:56;;;;;;;0.40;0.40;;;;;;;14.82;82.89;100346.22;4868511;29;20064;-93
2023/09/25 05:57:23;;;;;;;0.40;0.40;;;;;;;14.91;82.42;100354.81;4889480;29;20065;-93
2023/09/25 05:59:51;;;;;;;0.50;0.50;;;;;;;14.98;81.21;100360.13;4832600;29;20062;-89
2023/09/25 06:02:19;;;;;;;0.50;0.50;;;;;;;15.10;80.47;100359.00;4821036;29;20062;-86
2023/09/25 06:04:48;;;;;;;0.40;0.40;;;;;;;15.35;80.40;100355.97;4829865;29;20053;-87
2023/09/25 06:07:15;;;;;;;0.50;0.50;;;;;;;15.52;79.42;100353.31;4837869;29;20090;-87
2023/09/25 06:09:44;;;;;;;0.50;0.50;;;;;;;15.69;78.11;100352.50;4822502;29;20634;-86
2023/09/25 06:12:13;;;;;;;0.50;0.50;;;;;;;15.79;77.89;100358.13;4835506;29;20058;-85
2023/09/25 06:14:41;;;;;;;0.40;0.40;;;;;;;15.69;76.90;100357.94;4834614;29;20046;-87
2023/09/25 06:17:09;;;;;;;0.40;0.40;;;;;;;15.48;77.12;100360.28;4833144;29;20054;-85
2023/09/25 06:19:37;;;;;;;0.40;0.40;;;;;;;15.42;77.92;100354.97;4808671;29;20110;-86
2023/09/25 06:22:04;;;;;;;0.47;0.47;;;;;;;15.55;77.60;100352.81;4855263;29;20056;-85
2023/09/25 06:24:31;;;;;;;0.30;0.30;;;;;;;15.45;76.41;100358.06;4838556;29;20046;-86
2023/09/25 06:26:59;;;;;;;0.40;0.40;;;;;;;15.34;76.71;100358.94;4839682;29;20046;-87
2023/09/25 06:29:27;;;;;;;0.50;0.50;;;;;;;15.61;76.06;100361.88;4845288;29;20072;-86
2023/09/25 06:31:54;;;;;;;0.50;0.50;;;;;;;16.00;74.14;100368.31;4892427;29;20080;-86
2023/09/25 06:34:28;;;;;;;0.50;0.50;;;;;;;16.16;73.35;100374.81;4897861;29;20139;-86
2023/09/25 06:36:55;;;;;;;0.40;0.40;;;;;;;16.02;73.06;100371.59;4897946;29;20048;-86
2023/09/25 06:39:23;;;;;;;0.50;0.50;;;;;;;16.05;72.70;100375.72;4912446;29;20164;-85
2023/09/25 06:41:51;;;;;;;0.50;0.50;;;;;;;16.24;72.16;100392.66;4895917;29;20056;-85
2023/09/25 06:44:21;;;;;;;0.50;0.50;;;;;;;16.49;71.63;100385.97;4897669;29;20048;-86
2023/09/25 06:46:48;;;;;;;0.40;0.40;;;;;;;16.58;71.69;100381.72;4897345;29;20072;-87
2023/09/25 06:49:34;;;;;;;0.45;0.45;;;;;;;16.55;70.83;100395.84;4897717;29;20055;-86
2023/09/25 06:52:01;;;;;;;0.40;0.40;;;;;;;16.62;70.35;100401.94;4885806;29;20226;-85
2023/09/25 06:54:28;;;;;;;0.40;0.40;;;;;;;16.56;69.50;100383.84;4905214;29;20131;-87
2023/09/25 06:56:57;;;;;;;0.40;0.40;;;;;;;16.40;69.19;100389.06;4898348;29;20100;-87
2023/09/25 06:59:26;;;;;;;0.50;0.50;;;;;;;16.46;68.99;100400.91;4897697;29;20059;-87
2023/09/25 07:01:53;;;;;;;0.40;0.40;;;;;;;16.39;69.54;100408.41;4899567;29;20048;-85
2023/09/25 07:04:21;;;;;;;0.40;0.40;;;;;;;16.60;69.84;100410.38;4905401;29;20401;-86
2023/09/25 07:06:49;;;;;;;0.40;0.40;;;;;;;16.76;67.90;100408.72;4899798;29;20056;-86
2023/09/25 07:09:17;;;;;;;0.55;0.55;;;;;;;17.18;66.60;100413.63;4884573;29;20062;-86
2023/09/25 07:11:45;;;;;;;0.50;0.50;;;;;;;17.37;66.57;100413.28;4901122;29;20054;-86
2023/09/25 07:14:12;;;;;;;0.50;0.50;;;;;;;17.48;66.04;100415.09;4897265;29;20559;-86
2023/09/25 07:16:40;;;;;;;0.50;0.50;;;;;;;17.52;65.83;100418.94;4897148;29;20568;-87
2023/09/25 07:19:08;;;;;;;0.60;0.60;;;;;;;17.95;64.11;100418.06;4896928;29;20054;-87
2023/09/25 07:21:36;;;;;;;0.50;0.50;;;;;;;18.07;62.24;100422.53;4898694;29;20057;-86
2023/09/25 07:24:03;;;;;;;0.40;0.40;;;;;;;17.93;61.93;100419.41;4897627;29;20056;-87
2023/09/25 07:26:31;;;;;;;0.40;0.40;;;;;;;17.89;63.43;100434.66;4880051;29;20056;-87
2023/09/25 07:28:58;;;;;;;0.40;0.40;;;;;;;18.11;63.35;100435.41;4899243;29;20054;-86
2023/09/25 07:31:26;;;;;;;0.40;0.40;;;;;;;18.09;63.06;100423.91;4911307;29;20056;-87
2023/09/25 07:33:55;;;;;;;0.40;0.40;;;;;;;18.13;62.87;100429.69;4874445;29;20060;-88
2023/09/25 07:36:24;;;;;;;0.40;0.40;;;;;;;18.17;61.90;100423.44;4883762;29;20057;-86
2023/09/25 07:47:22;;;;;;;0.40;0.40;;;;;;;17.87;59.24;100439.53;4901487;29;20067;-86
2023/09/25 07:59:32;;;;;;;0.40;0.40;;;;;;;17.95;58.08;100447.25;4783349;29;20080;-87
2023/09/25 08:04:18;;;;;;;0.50;0.50;;;;;;;18.23;58.35;100446.19;4793199;30;20397;-88
2023/09/25 08:13:54;;;;;;;0.50;0.50;;;;;;;18.59;56.08;100463.66;4633245;31;20063;-88
2023/09/25 08:18:49;;;;;;;0.43;0.43;;;;;;;17.86;57.93;100470.66;4570248;31;20160;-87
2023/09/25 08:28:14;;;;;;;0.47;0.47;;;;;;;18.26;58.42;100480.34;4551428;31;20140;-87
2023/09/25 08:44:20;;;;;;;0.40;0.40;;;;;;;18.69;56.50;100473.03;4566527;31;20087;-87
2023/09/25 08:48:12;;;;;;;0.60;0.60;;;;;;;20.29;52.77;100478.91;4621900;31;20062;-87
2023/09/25 08:56:43;;;;;;;0.40;0.40;;;;;;;17.73;58.80;100482.78;4640918;30;20085;-87
2023/09/25 09:48:57;;;;;;;0.40;0.40;;;;;;;19.13;55.69;100544.75;4717794;30;20480;-89
2023/09/25 09:53:48;;;;;;;0.45;0.45;;;;;;;18.74;56.04;100541.44;4791690;29;20050;-89
2023/09/25 10:12:16;;;;;;;;;;;;;;;19.17;55.51;100561.50;4716987;30;20568;-87
2023/09/25 10:22:08;;;;;;;0.40;0.40;;;;;;;18.48;57.25;100557.59;4728378;30;20063;-92
2023/09/25 10:26:21;;;;;;;0.30;0.30;;;;;;;18.42;57.85;100562.19;4919288;23;20139;-94
2023/09/25 10:29:16;;;;;;;0.40;0.40;;;;;;;17.97;58.06;100532.50;4928456;29;20051;-92
2023/09/25 10:35:23;;;;;;;0.50;0.50;;;;;;;18.15;57.66;100559.50;5002001;23;20059;31
2023/09/25 10:38:13;;;;;;;0.84;0.84;;;;;;;20.20;53.33;100555.38;4949691;23;10001100;-91
2023/09/25 10:41:02;;;;;;;0.40;0.40;;;;;;;21.48;49.38;100552.66;4925762;29;20773;-90
2023/09/25 10:43:34;;;;;;;0.40;0.40;;;;;;;20.86;50.49;100554.63;4938578;29;20035;-92
2023/09/25 10:46:03;;;;;;;0.40;0.40;;;;;;;20.55;51.26;100554.63;4930128;29;20055;-91
2023/09/25 10:48:43;;;;;;;0.40;0.40;;;;;;;20.04;51.54;100540.81;4880924;29;20042;-93
2023/09/25 10:51:20;;;;;;;0.40;0.40;;;;;;;19.37;53.04;100556.13;4877900;29;20054;-92
2023/09/25 10:53:49;;;;;;;0.70;0.70;;;;;;;19.68;53.17;100557.13;4871064;29;20053;-92
2023/09/25 10:56:21;;;;;;;0.90;0.90;;;;;;;22.49;47.17;100558.75;4878782;29;20173;-93
2023/09/25 11:03:15;;;;;;;0.60;0.60;;;;;;;24.43;41.85;100539.25;4815322;29;20050;-95
2023/09/25 11:10:29;;;;;;;0.40;0.40;;;;;;;21.11;49.17;100542.81;4763096;30;20033;-91
2023/09/25 11:13:41;;;;;;;0.70;0.70;;;;;;;22.00;47.75;100548.59;4755088;30;20049;-94
2023/09/25 11:16:37;;;;;;;0.70;0.70;;;;;;;24.79;42.52;100544.19;4739161;30;20033;-96
2023/09/25 11:19:30;;;;;;;0.70;0.70;;;;;;;26.45;38.55;100535.84;4709732;30;20069;-95
2023/09/25 11:25:59;;;;;;;0.40;0.40;;;;;;;23.66;42.40;100528.44;5056587;23;20054;-95
2023/09/25 11:29:17;;;;;;;0.30;0.30;;;;;;;21.59;45.14;100545.19;4911539;29;20431;-94
2023/09/25 11:41:57;;;;;;;0.80;0.80;;;;;;;24.49;41.32;100548.28;5283280;23;20043;-93
2023/09/25 12:00:35;;;;;;;0.30;0.30;;;;;;;21.81;44.13;100562.13;4960033;23;20055;-96
2023/09/25 12:10:06;;;;;;;0.30;0.30;;;;;;;19.62;47.22;100591.03;5163237;23;20114;-89
2023/09/25 12:12:37;;;;;;;0.40;0.40;;;;;;;19.02;49.42;100590.38;4973383;29;20115;-93
2023/09/25 12:16:00;;;;;;;0.32;0.32;;;;;;;20.00;48.02;100593.69;4954818;29;20407;-93
2023/09/25 12:18:43;;;;;;;0.32;0.32;;;;;;;19.63;48.57;100570.78;4922988;29;20060;-91
2023/09/25 12:21:21;;;;;;;0.80;0.80;;;;;;;21.35;45.84;100589.72;4917202;29;20055;-91
2023/09/25 12:24:07;;;;;;;0.70;0.70;;;;;;;24.03;40.53;100571.00;4915202;29;20046;-91
2023/09/25 12:29:45;;;;;;;0.60;0.60;;;;;;;26.55;35.71;100576.34;4890834;29;20037;-95
2023/09/25 12:32:33;;;;;;;0.60;0.60;;;;;;;27.12;35.54;100568.28;4902311;29;20056;-92
2023/09/25 12:36:23;;;;;;;0.30;0.30;;;;;;;24.74;38.75;100582.94;4917526;29;20076;-93
2023/09/25 12:42:06;;;;;;;0.50;0.50;;;;;;;26.07;37.00;100587.94;4966978;28;20062;-90
2023/09/25 12:44:53;;;;;;;0.60;0.60;;;;;;;26.89;35.50;100586.03;4961280;28;20043;-90
2023/09/25 12:47:58;;;;;;;0.50;0.50;;;;;;;27.02;34.68;100563.81;4934498;29;20080;-90
2023/09/25 12:50:28;;;;;;;0.52;0.52;;;;;;;27.28;34.93;100590.06;4917523;29;20058;-89
2023/09/25 12:53:04;;;;;;;0.60;0.60;;;;;;;27.27;34.01;100589.25;4930200;29;20063;-91
2023/09/25 12:55:33;;;;;;;0.50;0.50;;;;;;;27.11;34.27;100602.63;4948986;29;20051;-91
2023/09/25 12:58:01;;;;;;;0.50;0.50;;;;;;;27.73;33.31;100606.56;4939581;29;20047;-91
2023/09/25 13:00:29;;;;;;;0.50;0.50;;;;;;;27.91;32.17;100602.72;4948020;29;20570;-91
2023/09/25 13:03:23;;;;;;;0.50;0.50;;;;;;;27.63;33.15;100608.47;4946970;29;20152;-92
2023/09/25 13:05:58;;;;;;;0.50;0.50;;;;;;;27.47;32.83;100607.25;4905840;29;20046;-91
2023/09/25 13:08:42;;;;;;;0.50;0.50;;;;;;;27.37;32.69;100613.91;4845905;29;20327;-93
2023/09/25 13:11:10;;;;;;;0.47;0.47;;;;;;;27.10;32.97;100606.56;4860874;29;20057;-91
2023/09/25 13:13:56;;;;;;;0.20;0.20;;;;;;;25.94;34.80;100611.72;4849833;29;20131;-90
2023/09/25 13:16:49;;;;;;;0.30;0.30;;;;;;;24.06;37.87;100628.31;4855193;29;20088;-91
2023/09/25 13:19:20;;;;;;;0.50;0.50;;;;;;;25.03;36.32;100598.47;4841836;29;20049;-90
2023/09/25 13:21:48;;;;;;;0.30;0.30;;;;;;;24.96;36.64;100609.88;4836161;29;20054;-90
2023/09/25 13:24:37;;;;;;;0.20;0.20;;;;;;;24.76;36.96;100612.97;4861910;29;20060;-92
2023/09/25 13:43:27;;;;;;;0.40;0.40;;;;;;;26.20;33.51;100600.09;5493115;23;20150;-90
2023/09/25 13:46:21;;;;;;;0.40;0.40;;;;;;;25.97;33.81;100618.56;4998971;28;20047;-88
2023/09/25 13:49:15;;;;;;;0.50;0.50;;;;;;;25.67;34.42;100621.59;4977584;28;20035;-89
2023/09/25 13:55:27;;;;;;;0.40;0.40;;;;;;;26.50;33.80;100613.25;5724778;23;20066;-93
2023/09/25 13:57:57;;;;;;;0.40;0.40;;;;;;;26.69;34.14;100609.53;4955831;28;20279;-92
2023/09/25 14:00:39;;;;;;;0.40;0.40;;;;;;;27.02;33.53;100615.63;4923916;28;20306;-90
2023/09/25 14:03:07;;;;;;;0.40;0.40;;;;;;;26.87;33.49;100627.91;4956399;28;20118;-90
2023/09/25 14:06:14;;;;;;;0.30;0.30;;;;;;;26.55;33.84;100629.75;4938443;29;20023;-93
2023/09/25 14:11:54;;;;;;;0.40;0.40;;;;;;;25.98;34.88;100634.88;4995682;23;20117;-93
2023/09/25 14:14:57;;;;;;;0.40;0.40;;;;;;;25.79;35.39;100626.63;4916375;29;20160;-91
2023/09/25 14:17:32;;;;;;;0.20;0.20;;;;;;;24.32;36.76;100630.72;4885319;29;20120;-89
2023/09/25 14:20:22;;;;;;;0.20;0.20;;;;;;;22.37;40.73;100632.53;4898601;29;20080;-91
2023/09/25 14:23:23;;;;;;;0.20;0.20;;;;;;;20.94;43.38;100628.19;4896737;29;20045;-92
2023/09/25 14:26:06;;;;;;;0.20;0.20;;;;;;;20.26;44.83;100633.81;4899313;29;20071;-94
2023/09/25 14:28:47;;;;;;;0.20;0.20;;;;;;;19.87;46.04;100628.69;4884228;29;20051;-93
2023/09/25 14:31:27;;;;;;;0.30;0.30;;;;;;;19.56;47.45;100649.59;4884354;29;20179;-92
2023/09/25 14:34:02;;;;;;;0.30;0.30;;;;;;;19.41;47.28;100633.06;4845167;29;20057;-93
2023/09/25 14:36:41;;;;;;;0.30;0.30;;;;;;;19.41;47.24;100636.63;4871267;29;20097;-94
2023/09/25 14:39:38;;;;;;;0.30;0.30;;;;;;;19.01;47.80;100640.69;4877295;29;20037;-93
2023/09/25 14:42:20;;;;;;;0.30;0.30;;;;;;;18.51;49.58;100632.81;4897837;29;20039;-93
2023/09/25 14:50:33;;;;;;;0.30;0.30;;;;;;;17.66;51.90;100641.31;4883566;29;20038;-87
2023/09/25 14:53:54;;;;;;;0.30;0.30;;;;;;;17.57;52.13;100642.00;4917951;29;20048;-90
2023/09/25 14:57:40;;;;;;;0.30;0.30;;;;;;;17.39;52.84;100640.38;4805706;29;20034;-86
2023/09/25 15:01:08;;;;;;;0.35;0.35;;;;;;;17.13;53.52;100620.88;4786504;29;20060;-90
2023/09/25 15:03:39;;;;;;;0.30;0.30;;;;;;;17.14;54.29;100627.16;4762057;30;20063;-91
2023/09/25 15:06:08;;;;;;;0.30;0.30;;;;;;;17.08;54.89;100639.88;4779147;30;20063;-92
2023/09/25 15:08:36;;;;;;;0.30;0.30;;;;;;;17.05;55.00;100643.13;4762298;30;20070;-90
2023/09/25 15:11:06;;;;;;;0.30;0.30;;;;;;;16.86;55.64;100639.78;4770229;30;20185;-96
2023/09/25 15:13:34;;;;;;;0.30;0.30;;;;;;;16.77;56.09;100644.78;4775627;30;20079;-93
2023/09/25 15:16:05;;;;;;;0.30;0.30;;;;;;;16.65;56.58;100646.75;4772370;30;20045;-89
2023/09/25 15:18:57;;;;;;;0.30;0.30;;;;;;;16.53;57.79;100643.25;4778133;30;20081;-89
2023/09/25 15:21:27;;;;;;;0.38;0.38;;;;;;;16.36;57.90;100652.22;4754431;30;20163;-93
2023/09/25 15:27:20;;;;;;;0.38;0.38;;;;;;;15.98;59.74;100648.19;4939855;29;20408;-92
2023/09/25 15:30:04;;;;;;;0.40;0.40;;;;;;;15.97;59.96;100662.03;4899044;29;20042;-93
2023/09/25 15:32:36;;;;;;;0.30;0.30;;;;;;;15.84;61.67;100654.94;4919559;29;20052;-92
2023/09/25 15:35:06;;;;;;;0.40;0.40;;;;;;;15.83;62.28;100661.47;4954285;29;20092;-95
2023/09/25 15:38:22;;;;;;;0.38;0.38;;;;;;;15.83;61.67;100666.91;5068846;23;20055;-93
2023/09/25 15:40:52;;;;;;;0.40;0.40;;;;;;;15.60;61.76;100645.97;4946449;29;20066;-91
2023/09/25 15:43:29;;;;;;;0.30;0.30;;;;;;;15.60;62.66;100671.28;4936787;29;20043;-93
2023/09/25 15:46:21;;;;;;;0.40;0.40;;;;;;;15.47;62.76;100657.91;4894701;29;20062;-93
2023/09/25 15:49:13;;;;;;;0.40;0.40;;;;;;;15.34;63.55;100661.69;4915003;29;20058;-93
2023/09/25 15:55:09;;;;;;;0.40;0.40;;;;;;;15.28;64.38;100676.22;4940043;29;20525;-96
2023/09/25 15:57:40;;;;;;;0.40;0.40;;;;;;;15.20;64.45;100656.72;4891736;29;20056;-93
2023/09/25 16:00:10;;;;;;;0.40;0.40;;;;;;;15.38;64.66;100670.19;4905692;29;20043;-96
2023/09/25 16:03:06;;;;;;;0.32;0.32;;;;;;;15.31;64.72;100655.88;4931517;29;20064;-95
2023/09/25 16:05:39;;;;;;;0.30;0.30;;;;;;;15.42;64.57;100674.13;4865535;29;20077;-94
2023/09/25 16:08:21;;;;;;;0.40;0.40;;;;;;;15.53;64.97;100692.31;4954004;24;20118;-94
2023/09/25 16:11:04;;;;;;;0.40;0.40;;;;;;;15.68;64.68;100707.38;4948737;28;20047;-94
2023/09/25 16:13:34;;;;;;;0.30;0.30;;;;;;;15.74;64.40;100706.44;4963301;28;20055;-92
2023/09/25 16:16:21;;;;;;;0.40;0.40;;;;;;;15.72;63.41;100692.22;4924774;29;20056;-92
2023/09/25 16:19:07;;;;;;;0.40;0.40;;;;;;;15.94;62.85;100706.06;4913964;29;20090;-93
2023/09/25 16:22:24;;;;;;;0.40;0.40;;;;;;;16.05;62.46;100702.50;4962340;23;20067;-93
2023/09/25 16:25:14;;;;;;;0.30;0.30;;;;;;;15.94;62.70;100684.28;4855368;29;20033;-93
2023/09/25 16:27:42;;;;;;;0.40;0.40;;;;;;;15.82;63.20;100687.03;4855154;29;20076;-93
2023/09/25 16:30:19;;;;;;;0.30;0.30;;;;;;;15.82;63.24;100682.44;4869225;29;20053;-93
2023/09/25 16:32:54;;;;;;;0.40;0.40;;;;;;;15.81;63.45;100691.63;4862151;29;20059;-90
2023/09/25 16:35:22;;;;;;;0.30;0.30;;;;;;;15.66;63.72;100693.16;4854423;29;20467;-91
2023/09/25 16:37:56;;;;;;;0.30;0.30;;;;;;;15.65;63.99;100699.66;4853666;29;20097;-93
2023/09/25 16:40:26;;;;;;;0.40;0.40;;;;;;;15.49;64.31;100688.41;4840700;29;20049;-90
2023/09/25 16:43:03;;;;;;;0.40;0.40;;;;;;;15.42;64.73;100698.59;4832542;29;20425;-90
2023/09/25 16:45:40;;;;;;;0.40;0.40;;;;;;;15.31;65.19;100696.69;4846909;29;20046;-94
2023/09/25 16:48:08;;;;;;;0.40;0.40;;;;;;;15.19;65.90;100699.38;4863185;29;20057;-91
2023/09/25 16:50:35;;;;;;;0.40;0.40;;;;;;;15.08;66.76;100706.44;4845538;29;20061;-85
2023/09/25 16:53:03;;;;;;;0.40;0.40;;;;;;;14.92;67.26;100707.13;4858702;29;20069;-88
2023/09/25 16:55:32;;;;;;;0.30;0.30;;;;;;;14.72;67.81;100696.53;4891478;29;20070;-87
2023/09/25 16:57:59;;;;;;;0.30;0.30;;;;;;;14.66;68.10;100700.16;4916281;29;20549;-87
2023/09/25 17:00:29;;;;;;;0.40;0.40;;;;;;;14.60;68.45;100712.78;5320098;23;20063;-91
2023/09/25 17:03:03;;;;;;;0.40;0.40;;;;;;;14.52;68.72;100711.19;4927064;28;20043;-90
2023/09/25 17:05:58;;;;;;;0.40;0.40;;;;;;;14.56;69.09;100717.03;4940106;29;20063;-90
2023/09/25 17:09:08;;;;;;;0.40;0.40;;;;;;;14.42;69.35;100710.91;4909594;29;20096;-92
2023/09/25 17:11:37;;;;;;;0.40;0.40;;;;;;;14.32;69.51;100714.16;4930605;29;20050;-91
2023/09/25 17:14:05;;;;;;;0.40;0.40;;;;;;;14.08;70.08;100701.50;4909068;29;20508;-94
2023/09/25 17:16:58;;;;;;;0.40;0.40;;;;;;;14.19;70.53;100714.31;4958400;29;20032;-92
2023/09/25 17:20:03;;;;;;;0.40;0.40;;;;;;;14.07;71.19;100724.25;4887495;29;20063;-92
2023/09/25 17:22:38;;;;;;;0.40;0.40;;;;;;;13.94;71.08;100698.09;4846662;29;20078;-90
2023/09/25 17:25:21;;;;;;;0.40;0.40;;;;;;;14.00;71.49;100718.94;4872713;29;20060;-91
2023/09/25 17:27:51;;;;;;;0.40;0.40;;;;;;;13.90;71.80;100706.91;4825520;29;20396;-90
2023/09/25 17:30:21;;;;;;;0.40;0.40;;;;;;;13.82;72.11;100689.03;4868052;29;20053;-90
2023/09/25 17:33:02;;;;;;;0.40;0.40;;;;;;;13.84;72.24;100711.34;4857030;29;20663;-91
2023/09/25 17:35:37;;;;;;;0.40;0.40;;;;;;;13.68;72.55;100701.91;4848232;29;20111;-90
2023/09/25 17:38:05;;;;;;;0.40;0.40;;;;;;;13.59;72.80;100720.34;4856232;29;20159;-89
2023/09/25 17:40:37;;;;;;;0.40;0.40;;;;;;;13.45;73.76;100710.69;4864617;29;20201;-90
2023/09/25 17:43:19;;;;;;;0.50;0.50;;;;;;;13.36;73.95;100707.41;4845956;29;20073;-90
2023/09/25 17:45:46;;;;;;;0.43;0.43;;;;;;;13.56;73.93;100725.41;4852920;29;20053;-88
2023/09/25 17:48:13;;;;;;;0.40;0.40;;;;;;;13.57;74.06;100727.03;4823727;29;20540;-88